Aéroport d'Albi - Le Séquestre

21/02/2020
OBS MET LFCI*:210700Z 00000KT 9999 SCT012 BKN026 06/05 Q1031=
21/02/20 07h11 - *la nébulosité est estimée par l'AFIS et par conséquent non certifiée;

PHOTOS